createdAt,value
2019-01-25T00:00:28.583Z,16.13
2019-01-25T00:03:00.575Z,17.80
2019-01-25T00:05:30.932Z,17.17
2019-01-25T00:08:01.341Z,16.93
2019-01-25T00:10:31.799Z,17.30
2019-01-25T00:13:02.199Z,16.00
2019-01-25T00:15:32.667Z,16.93
2019-01-25T00:18:03.007Z,16.37
2019-01-25T00:20:33.391Z,16.27
2019-01-25T00:23:03.751Z,16.30
2019-01-25T00:25:34.099Z,16.00
2019-01-25T00:28:04.450Z,16.33
2019-01-25T00:30:34.803Z,16.33
2019-01-25T00:33:05.443Z,15.47
2019-01-25T00:35:35.808Z,15.67
2019-01-25T00:38:06.153Z,15.23
2019-01-25T00:40:36.614Z,15.97
2019-01-25T00:43:06.955Z,16.23
2019-01-25T00:45:37.339Z,16.70
2019-01-25T00:48:07.724Z,16.47
2019-01-25T00:50:38.104Z,17.77
2019-01-25T00:53:08.523Z,16.00
2019-01-25T00:55:38.903Z,16.37
2019-01-25T00:58:09.347Z,17.13
2019-01-25T01:00:39.723Z,17.47
2019-01-25T01:03:10.139Z,17.00
2019-01-25T01:05:40.483Z,15.83
2019-01-25T01:08:10.845Z,17.00
2019-01-25T01:10:41.287Z,16.47
2019-01-25T01:13:11.661Z,17.23
2019-01-25T01:15:41.996Z,16.03
2019-01-25T01:18:12.484Z,16.87
2019-01-25T01:20:42.845Z,17.57
2019-01-25T01:23:13.195Z,16.20
2019-01-25T01:25:43.571Z,16.17
2019-01-25T01:28:13.926Z,17.17
2019-01-25T01:30:44.299Z,16.80
2019-01-25T01:33:14.649Z,16.63
2019-01-25T01:35:45.034Z,16.97
2019-01-25T01:38:15.447Z,15.03
2019-01-25T01:40:45.816Z,16.40
2019-01-25T01:43:16.160Z,16.13
2019-01-25T01:45:46.500Z,15.03
2019-01-25T01:48:16.852Z,17.37
2019-01-25T01:50:47.322Z,16.33
2019-01-25T01:53:17.668Z,16.73
2019-01-25T01:55:48.008Z,17.07
2019-01-25T01:58:18.378Z,16.83
2019-01-25T02:00:48.723Z,16.97
2019-01-25T02:03:19.101Z,16.50
2019-01-25T02:05:49.435Z,16.97
2019-01-25T02:08:19.830Z,16.97
2019-01-25T02:10:50.287Z,17.07
2019-01-25T02:13:20.675Z,16.63
2019-01-25T02:15:50.401Z,16.37
2019-01-25T02:18:20.675Z,15.50
2019-01-25T02:20:50.451Z,18.37
2019-01-25T02:23:20.734Z,17.10
2019-01-25T02:25:50.827Z,15.90
2019-01-25T02:28:21.079Z,16.27
2019-01-25T02:30:51.447Z,15.63
2019-01-25T02:33:21.788Z,16.17
2019-01-25T02:35:52.155Z,17.10
2019-01-25T02:38:22.492Z,16.63
2019-01-25T02:40:52.901Z,17.57
2019-01-25T02:43:22.647Z,16.50
2019-01-25T02:45:52.948Z,16.97
2019-01-25T02:48:23.360Z,19.07
2019-01-25T02:50:53.735Z,16.17
2019-01-25T02:53:24.182Z,17.27
2019-01-25T02:55:54.635Z,16.50
2019-01-25T02:58:24.328Z,17.93
2019-01-25T03:00:54.612Z,19.33
2019-01-25T03:03:24.955Z,18.10
2019-01-25T03:05:55.347Z,16.93
2019-01-25T03:08:25.692Z,16.27
2019-01-25T03:10:56.065Z,18.57
2019-01-25T03:13:26.404Z,20.23
2019-01-25T03:15:56.764Z,18.77
2019-01-25T03:18:27.186Z,19.83
2019-01-25T03:20:57.535Z,18.60
2019-01-25T03:23:28.193Z,20.03
2019-01-25T03:25:58.611Z,19.70
2019-01-25T03:28:29.008Z,19.13
2019-01-25T03:30:59.435Z,20.10
2019-01-25T03:33:30.213Z,19.57
2019-01-25T03:36:00.639Z,18.63
2019-01-25T03:38:31.049Z,18.17
2019-01-25T03:41:01.467Z,17.43
2019-01-25T03:43:31.835Z,17.60
2019-01-25T03:46:02.179Z,18.00
2019-01-25T03:48:32.626Z,17.47
2019-01-25T03:51:02.972Z,16.13
2019-01-25T03:53:33.344Z,18.50
2019-01-25T03:56:04.060Z,15.97
2019-01-25T03:58:34.442Z,16.33
2019-01-25T04:01:05.225Z,16.20
2019-01-25T04:03:35.752Z,16.87
2019-01-25T04:06:06.305Z,16.50
2019-01-25T04:08:36.676Z,15.37
2019-01-25T04:11:07.025Z,16.37
2019-01-25T04:13:37.445Z,16.73
2019-01-25T04:16:07.807Z,17.07
2019-01-25T04:18:38.184Z,17.23
2019-01-25T04:21:08.527Z,17.20
2019-01-25T04:23:39.881Z,17.93
2019-01-25T04:26:10.301Z,16.30
2019-01-25T04:28:40.750Z,18.63
2019-01-25T04:31:12.159Z,17.67
2019-01-25T04:33:42.931Z,17.67
2019-01-25T04:36:13.271Z,17.20
2019-01-25T04:38:44.017Z,18.10
2019-01-25T04:41:14.360Z,18.00
2019-01-25T04:43:44.789Z,20.73
2019-01-25T04:46:15.480Z,19.67
2019-01-25T04:48:45.892Z,19.67
2019-01-25T04:51:16.232Z,20.03
2019-01-25T04:53:46.674Z,19.43
2019-01-25T04:56:17.096Z,18.50
2019-01-25T04:58:47.635Z,18.10
2019-01-25T05:01:17.972Z,17.90
2019-01-25T05:03:48.319Z,16.33
2019-01-25T05:06:18.780Z,17.60
2019-01-25T05:08:49.211Z,18.33
2019-01-25T05:11:20.474Z,17.00
2019-01-25T05:13:51.017Z,17.47
2019-01-25T05:16:21.497Z,18.20
2019-01-25T05:18:51.858Z,18.47
2019-01-25T05:21:26.464Z,18.27
2019-01-25T05:23:56.895Z,19.57
2019-01-25T05:26:27.243Z,18.93
2019-01-25T05:28:57.622Z,17.83
2019-01-25T05:31:31.979Z,19.03
2019-01-25T05:34:04.297Z,19.03
2019-01-25T05:36:34.641Z,19.00
2019-01-25T05:39:07.901Z,19.47
2019-01-25T05:41:38.368Z,17.30
2019-01-25T05:44:08.134Z,18.00
2019-01-25T05:46:38.480Z,18.63
2019-01-25T05:49:08.820Z,19.53
2019-01-25T05:51:39.269Z,19.27
2019-01-25T05:54:09.619Z,20.10
2019-01-25T05:56:43.633Z,19.10
2019-01-25T05:59:25.028Z,19.30
2019-01-25T06:01:54.790Z,18.27
2019-01-25T06:04:32.892Z,21.97
2019-01-25T06:07:04.020Z,18.33
2019-01-25T06:09:35.012Z,18.80
2019-01-25T06:12:05.498Z,19.40
2019-01-25T06:14:35.791Z,19.63
2019-01-25T06:17:06.627Z,19.60
2019-01-25T06:19:38.470Z,20.20
2019-01-25T06:22:09.103Z,17.90
2019-01-25T06:24:40.006Z,20.23
2019-01-25T06:27:10.384Z,19.57
2019-01-25T06:29:40.811Z,18.83
2019-01-25T06:32:11.155Z,18.10
2019-01-25T06:34:41.531Z,18.87
2019-01-25T06:37:11.215Z,19.53
2019-01-25T06:39:41.503Z,19.93
2019-01-25T06:42:12.394Z,19.00
2019-01-25T06:44:42.812Z,18.77
2019-01-25T06:47:13.164Z,18.60
2019-01-25T06:49:43.511Z,19.00
2019-01-25T06:52:13.911Z,17.37
2019-01-25T06:54:44.687Z,19.03
2019-01-25T06:57:43.152Z,18.50
2019-01-25T07:00:15.571Z,18.97
2019-01-25T07:02:45.971Z,20.53
2019-01-25T07:05:15.663Z,18.80
2019-01-25T07:07:45.751Z,19.73
2019-01-25T07:10:16.723Z,19.67
2019-01-25T07:12:48.051Z,21.40
2019-01-25T07:15:21.841Z,19.47
2019-01-25T07:17:52.186Z,19.87
2019-01-25T07:20:22.559Z,20.00
2019-01-25T07:22:54.046Z,20.73
2019-01-25T07:25:24.486Z,18.70
2019-01-25T07:27:54.935Z,20.57
2019-01-25T07:30:25.294Z,19.10
2019-01-25T07:33:14.033Z,19.80
2019-01-25T07:35:44.292Z,19.53
2019-01-25T07:38:14.637Z,19.47
2019-01-25T07:40:45.074Z,19.33
2019-01-25T07:43:14.863Z,18.80
2019-01-25T07:45:45.311Z,17.93
2019-01-25T07:48:15.872Z,17.30
2019-01-25T07:50:46.340Z,18.07
2019-01-25T07:53:16.229Z,17.60
2019-01-25T07:55:46.598Z,19.47
2019-01-25T07:58:16.365Z,19.93
2019-01-25T08:00:46.696Z,18.17
2019-01-25T08:03:19.420Z,21.13
2019-01-25T08:05:49.037Z,19.07
2019-01-25T08:08:19.395Z,19.30
2019-01-25T08:10:49.844Z,19.00
2019-01-25T08:13:21.269Z,20.20
2019-01-25T08:15:52.647Z,18.53
2019-01-25T08:18:24.244Z,19.87
2019-01-25T08:20:54.575Z,19.00
2019-01-25T08:23:24.656Z,18.90
2019-01-25T08:25:54.934Z,22.83
2019-01-25T08:28:25.796Z,21.30
2019-01-25T08:30:55.498Z,20.40
2019-01-25T08:33:25.252Z,19.73
2019-01-25T08:35:56.022Z,19.63
2019-01-25T08:38:26.344Z,19.37
2019-01-25T08:40:56.347Z,19.77
2019-01-25T08:43:52.038Z,21.33
2019-01-25T08:46:44.744Z,22.10
2019-01-25T08:49:17.121Z,21.03
2019-01-25T08:51:48.753Z,20.23
2019-01-25T08:54:18.934Z,20.67
2019-01-25T08:56:49.326Z,20.63
2019-01-25T08:59:19.766Z,19.70
2019-01-25T09:01:49.476Z,21.10
2019-01-25T09:04:19.787Z,20.00
2019-01-25T09:06:50.119Z,22.00
2019-01-25T09:09:20.460Z,21.57
2019-01-25T09:11:50.797Z,22.30
2019-01-25T09:14:20.487Z,21.07
2019-01-25T09:16:51.944Z,21.63
2019-01-25T09:19:22.107Z,22.30
2019-01-25T09:21:51.707Z,23.37
2019-01-25T09:24:21.951Z,21.57
2019-01-25T09:26:51.655Z,20.23
2019-01-25T09:29:21.285Z,20.03
2019-01-25T09:31:53.739Z,20.77
2019-01-25T09:34:24.003Z,21.07
2019-01-25T09:36:54.459Z,21.23
2019-01-25T09:39:26.015Z,21.90
2019-01-25T09:41:55.748Z,20.33
2019-01-25T09:44:26.067Z,20.07
2019-01-25T09:46:56.511Z,20.27
2019-01-25T09:49:26.953Z,21.77
2019-01-25T09:51:56.756Z,20.07
2019-01-25T09:54:28.473Z,20.83
2019-01-25T09:56:59.039Z,20.43
2019-01-25T09:59:29.399Z,21.97
2019-01-25T10:01:59.095Z,19.93
2019-01-25T10:04:29.751Z,19.77
2019-01-25T10:07:00.199Z,20.53
2019-01-25T10:09:30.599Z,21.20
2019-01-25T10:12:00.973Z,22.93
2019-01-25T10:14:31.307Z,21.47
2019-01-25T10:17:01.651Z,21.40
2019-01-25T10:19:32.075Z,23.40
2019-01-25T10:22:02.526Z,23.57
2019-01-25T10:24:32.934Z,22.57
2019-01-25T10:27:03.296Z,23.00
2019-01-25T10:29:33.960Z,20.10
2019-01-25T10:32:05.036Z,22.17
2019-01-25T10:34:35.371Z,21.93
2019-01-25T10:37:05.740Z,21.80
2019-01-25T10:39:35.427Z,20.83
2019-01-25T10:42:05.713Z,19.83
2019-01-25T10:44:36.292Z,21.13
2019-01-25T10:47:06.742Z,21.80
2019-01-25T10:49:37.156Z,20.77
2019-01-25T10:52:09.051Z,20.37
2019-01-25T10:54:39.667Z,19.43
2019-01-25T10:57:10.111Z,18.83
2019-01-25T10:59:40.462Z,19.60
2019-01-25T11:02:10.951Z,20.00
2019-01-25T11:04:41.303Z,20.37
2019-01-25T11:07:11.675Z,21.57
2019-01-25T11:09:42.020Z,23.30
2019-01-25T11:12:12.394Z,23.90
2019-01-25T11:14:42.079Z,22.37
2019-01-25T11:17:12.386Z,23.40
2019-01-25T11:19:42.939Z,24.77
2019-01-25T11:22:13.303Z,23.97
2019-01-25T11:24:43.873Z,25.47
2019-01-25T11:27:14.291Z,25.43
2019-01-25T11:29:47.560Z,22.93
2019-01-25T11:32:18.003Z,23.83
2019-01-25T11:34:48.444Z,24.93
2019-01-25T11:37:18.797Z,25.47
2019-01-25T11:39:49.362Z,24.27
2019-01-25T11:42:19.695Z,23.67
2019-01-25T11:44:50.033Z,25.07
2019-01-25T11:47:20.437Z,23.70
2019-01-25T11:49:50.127Z,23.70
2019-01-25T11:52:24.963Z,23.33
2019-01-25T11:54:52.443Z,26.07
2019-01-25T11:57:22.831Z,24.83
2019-01-25T11:59:53.179Z,26.00
2019-01-25T12:02:23.546Z,25.13
2019-01-25T12:04:56.207Z,24.37
2019-01-25T12:07:26.623Z,24.27
2019-01-25T12:09:56.987Z,22.50
2019-01-25T12:12:27.351Z,26.53
2019-01-25T12:14:57.723Z,22.57
2019-01-25T12:17:29.613Z,22.90
2019-01-25T12:19:59.455Z,23.53
2019-01-25T12:22:29.786Z,23.07
2019-01-25T12:24:59.478Z,22.57
2019-01-25T12:27:29.079Z,22.73
2019-01-25T12:29:59.323Z,24.13
2019-01-25T12:32:30.097Z,24.87
2019-01-25T12:35:01.531Z,24.60
2019-01-25T12:37:31.872Z,24.73
2019-01-25T12:40:02.225Z,25.27
2019-01-25T12:42:32.721Z,23.13
2019-01-25T12:45:03.256Z,22.73
2019-01-25T12:47:35.112Z,21.97
2019-01-25T12:50:07.965Z,22.67
2019-01-25T12:52:38.385Z,21.50
2019-01-25T12:55:08.219Z,21.87
2019-01-25T12:57:38.507Z,23.90
2019-01-25T13:00:12.150Z,25.47
2019-01-25T13:02:44.184Z,25.63
2019-01-25T13:05:18.292Z,24.80
2019-01-25T13:07:48.263Z,24.17
2019-01-25T13:10:18.239Z,25.90
2019-01-25T13:12:47.923Z,36.93
2019-01-25T13:15:18.319Z,25.87
2019-01-25T13:17:49.087Z,24.27
2019-01-25T13:20:24.387Z,22.17
2019-01-25T13:22:54.187Z,24.07
2019-01-25T13:25:24.999Z,22.23
2019-01-25T13:27:55.435Z,26.60
2019-01-25T13:30:26.271Z,21.53
2019-01-25T13:32:56.616Z,23.17
2019-01-25T13:35:26.410Z,23.77
2019-01-25T13:37:56.107Z,22.43
2019-01-25T13:40:26.432Z,19.60
2019-01-25T13:42:56.791Z,21.07
2019-01-25T13:45:26.491Z,20.97
2019-01-25T13:47:56.883Z,21.77
2019-01-25T13:50:26.885Z,22.20
2019-01-25T13:52:57.247Z,20.93
2019-01-25T13:55:27.235Z,22.63
2019-01-25T13:57:57.560Z,21.87
2019-01-25T14:00:28.791Z,22.10
2019-01-25T14:02:59.073Z,22.43
2019-01-25T14:05:29.619Z,21.70
2019-01-25T14:08:00.017Z,21.23
2019-01-25T14:10:32.496Z,21.20
2019-01-25T14:13:02.916Z,21.17
2019-01-25T14:15:33.690Z,21.43
2019-01-25T14:18:04.681Z,22.70
2019-01-25T14:20:35.159Z,23.77
2019-01-25T14:23:06.515Z,26.07
2019-01-25T14:25:36.859Z,26.03
2019-01-25T14:28:07.304Z,27.20
2019-01-25T14:30:40.047Z,27.57
2019-01-25T14:33:10.463Z,25.37
2019-01-25T14:35:41.611Z,23.97
2019-01-25T14:38:13.451Z,25.40
2019-01-25T14:40:43.712Z,25.10
2019-01-25T14:43:14.168Z,25.30
2019-01-25T14:45:44.511Z,24.17
2019-01-25T14:48:14.243Z,25.97
2019-01-25T14:50:44.856Z,27.00
2019-01-25T14:53:15.539Z,24.17
2019-01-25T14:55:46.354Z,24.47
2019-01-25T14:58:17.701Z,25.90
2019-01-25T15:00:48.111Z,25.90
2019-01-25T15:03:18.861Z,27.00
2019-01-25T15:05:48.874Z,26.20
2019-01-25T15:08:22.217Z,27.67
2019-01-25T15:10:53.240Z,26.30
2019-01-25T15:13:23.808Z,29.13
2019-01-25T15:15:54.746Z,27.70
2019-01-25T15:18:25.450Z,25.43
2019-01-25T15:20:56.947Z,25.50
2019-01-25T15:23:27.310Z,25.20
2019-01-25T15:25:57.107Z,24.97
2019-01-25T15:28:28.037Z,23.73
2019-01-25T15:30:58.415Z,23.23
2019-01-25T15:33:28.855Z,23.33
2019-01-25T15:35:59.525Z,20.43
2019-01-25T15:38:30.325Z,22.87
2019-01-25T15:41:00.106Z,20.77
2019-01-25T15:43:29.987Z,24.17
2019-01-25T15:46:00.925Z,25.03
2019-01-25T15:48:30.855Z,55.97
2019-01-25T15:51:00.536Z,32.40
2019-01-25T15:53:30.255Z,27.10
2019-01-25T15:56:00.535Z,19.63
2019-01-25T15:58:30.408Z,19.27
2019-01-25T16:01:00.015Z,19.73
2019-01-25T16:03:30.720Z,19.67
2019-01-25T16:06:00.963Z,19.97
2019-01-25T16:08:30.687Z,19.27
2019-01-25T16:11:00.943Z,19.97
2019-01-25T16:13:31.303Z,21.43
2019-01-25T16:16:01.677Z,21.40
2019-01-25T16:18:31.783Z,44.80
2019-01-25T16:21:02.119Z,27.97
2019-01-25T16:23:32.456Z,28.63
2019-01-25T16:26:02.179Z,20.30
2019-01-25T16:28:31.775Z,28.57
2019-01-25T16:31:02.139Z,33.07
2019-01-25T16:33:32.031Z,22.20
2019-01-25T16:36:02.291Z,21.83
2019-01-25T16:38:32.085Z,22.93
2019-01-25T16:41:02.329Z,20.80
2019-01-25T16:43:32.043Z,24.90
2019-01-25T16:46:03.738Z,24.60
2019-01-25T16:54:16.415Z,24.30
2019-01-25T16:56:46.231Z,26.53
2019-01-25T16:59:16.595Z,25.13
2019-01-25T17:01:46.951Z,25.07
2019-01-25T17:04:17.727Z,26.70
2019-01-25T17:06:48.212Z,25.97
2019-01-25T17:09:17.947Z,26.33
2019-01-25T17:11:47.553Z,28.33
2019-01-25T17:14:20.203Z,25.97
2019-01-25T17:16:50.464Z,26.33
2019-01-25T17:19:20.949Z,25.53
2019-01-25T17:21:50.748Z,26.63
2019-01-25T17:24:20.531Z,27.77
2019-01-25T17:26:50.891Z,28.93
2019-01-25T17:29:20.659Z,27.87
2019-01-25T17:31:50.916Z,30.67
2019-01-25T17:34:21.299Z,34.17
2019-01-25T17:36:51.639Z,35.43
2019-01-25T17:39:22.032Z,36.20
2019-01-25T17:41:53.107Z,33.97
2019-01-25T17:44:23.395Z,34.43
2019-01-25T17:46:53.108Z,34.40
2019-01-25T17:49:22.727Z,34.63
2019-01-25T17:51:53.019Z,29.47
2019-01-25T17:54:24.440Z,30.70
2019-01-25T17:56:54.811Z,31.67
2019-01-25T17:59:26.355Z,30.80
2019-01-25T18:01:56.803Z,30.90
2019-01-25T18:04:26.490Z,28.17
2019-01-25T18:06:56.779Z,29.43
2019-01-25T18:09:27.127Z,32.80
2019-01-25T18:11:57.602Z,32.10
2019-01-25T18:14:27.961Z,29.97
2019-01-25T18:16:58.879Z,29.43
2019-01-25T18:19:29.227Z,30.50
2019-01-25T18:21:59.580Z,30.50
2019-01-25T18:24:29.996Z,29.13
2019-01-25T18:27:00.432Z,31.20
2019-01-25T18:29:42.348Z,30.30
2019-01-25T18:32:14.527Z,31.40
2019-01-25T18:34:45.007Z,29.53
2019-01-25T18:37:14.711Z,33.17
2019-01-25T18:39:45.011Z,32.20
2019-01-25T18:42:15.456Z,30.87
2019-01-25T18:44:45.841Z,29.70
2019-01-25T18:47:15.631Z,29.80
2019-01-25T18:49:45.884Z,28.77
2019-01-25T18:52:16.266Z,33.20
2019-01-25T18:54:46.026Z,33.77
2019-01-25T18:57:16.298Z,35.73
2019-01-25T18:59:46.091Z,39.53
2019-01-25T19:02:16.347Z,35.63
2019-01-25T19:04:46.067Z,46.17
2019-01-25T19:07:16.321Z,38.27
2019-01-25T19:09:46.019Z,27.57
2019-01-25T19:12:16.320Z,29.23
2019-01-25T19:14:46.091Z,26.50
2019-01-25T19:17:16.359Z,26.93
2019-01-25T19:19:46.063Z,25.77
2019-01-25T19:22:16.324Z,21.90
2019-01-25T19:24:46.019Z,21.50
2019-01-25T19:27:16.327Z,22.77
2019-01-25T19:29:46.023Z,20.53
2019-01-25T19:32:16.388Z,19.80
2019-01-25T19:34:46.150Z,19.40
2019-01-25T19:37:16.824Z,20.97
2019-01-25T19:39:47.167Z,21.37
2019-01-25T19:42:17.640Z,21.17
2019-01-25T19:44:47.983Z,24.77
2019-01-25T19:47:18.331Z,22.20
2019-01-25T19:49:48.721Z,21.67
2019-01-25T19:52:19.127Z,20.83
2019-01-25T19:54:49.510Z,19.43
2019-01-25T19:57:19.865Z,20.10
2019-01-25T19:59:50.636Z,20.70
2019-01-25T20:02:21.341Z,19.60
2019-01-25T20:04:51.047Z,19.97
2019-01-25T20:07:22.451Z,19.20
2019-01-25T20:09:52.167Z,18.90
2019-01-25T20:12:22.424Z,21.17
2019-01-25T20:14:52.870Z,20.00
2019-01-25T20:17:23.219Z,21.57
2019-01-25T20:19:53.611Z,19.87
2019-01-25T20:22:23.947Z,19.97
2019-01-25T20:24:54.331Z,20.57
2019-01-25T20:27:24.991Z,20.73
2019-01-25T20:29:55.261Z,21.00
2019-01-25T20:32:25.632Z,21.77
2019-01-25T20:34:56.471Z,19.20
2019-01-25T20:37:26.247Z,20.73
2019-01-25T20:39:56.607Z,20.63
2019-01-25T20:42:26.951Z,20.97
2019-01-25T20:44:57.308Z,20.43
2019-01-25T20:47:27.819Z,22.10
2019-01-25T20:49:57.515Z,20.70
2019-01-25T20:52:27.839Z,22.33
2019-01-25T20:54:58.175Z,23.23
2019-01-25T20:57:28.547Z,24.43
2019-01-25T20:59:58.979Z,22.60
2019-01-25T21:02:29.587Z,24.23
2019-01-25T21:04:59.991Z,22.77
2019-01-25T21:07:30.416Z,24.73
2019-01-25T21:10:00.892Z,25.40
2019-01-25T21:12:31.280Z,28.53
2019-01-25T21:15:01.700Z,23.00
2019-01-25T21:17:32.168Z,18.77
2019-01-25T21:20:02.525Z,21.80
2019-01-25T21:22:32.928Z,22.30
2019-01-25T21:25:03.388Z,23.10
2019-01-25T21:27:33.099Z,26.67
2019-01-25T21:30:03.380Z,26.10
2019-01-25T21:32:33.788Z,26.70
2019-01-25T21:35:03.603Z,24.33
2019-01-25T21:37:33.283Z,25.20
2019-01-25T21:40:08.471Z,22.77
2019-01-25T21:42:34.991Z,23.47
2019-01-25T21:45:06.524Z,23.20
2019-01-25T21:47:36.212Z,24.60
2019-01-25T21:50:08.443Z,23.30
2019-01-25T21:52:38.787Z,27.70
2019-01-25T21:55:10.792Z,25.93
2019-01-25T21:57:40.519Z,22.80
2019-01-25T22:00:22.947Z,26.40
2019-01-25T22:02:52.638Z,25.77
2019-01-25T22:05:22.967Z,25.10
2019-01-25T22:07:53.334Z,25.80
2019-01-25T22:10:26.238Z,24.23
2019-01-25T22:12:56.689Z,24.50
2019-01-25T22:15:27.149Z,32.67
2019-01-25T22:17:57.612Z,25.77
2019-01-25T22:20:27.963Z,27.30
2019-01-25T22:22:58.331Z,28.33
2019-01-25T22:25:28.695Z,25.03
2019-01-25T22:27:59.905Z,30.23
2019-01-25T22:30:29.980Z,28.10
2019-01-25T22:33:00.269Z,27.80
2019-01-25T22:35:30.618Z,25.63
2019-01-25T22:38:01.159Z,27.10
2019-01-25T22:40:32.820Z,26.93
2019-01-25T22:43:03.195Z,26.47
2019-01-25T22:45:33.651Z,28.03
2019-01-25T22:48:03.566Z,25.73
2019-01-25T22:50:36.316Z,25.97
2019-01-25T22:53:06.811Z,26.73
2019-01-25T22:55:37.643Z,25.97
2019-01-25T22:58:08.109Z,26.93
2019-01-25T23:00:56.727Z,29.90
2019-01-25T23:03:43.974Z,26.73
2019-01-25T23:06:44.079Z,27.77
2019-01-25T23:09:27.139Z,28.37
2019-01-25T23:11:57.552Z,27.37
2019-01-25T23:14:28.023Z,29.23
2019-01-25T23:16:58.364Z,28.47
2019-01-25T23:19:28.784Z,27.90
2019-01-25T23:21:59.131Z,27.70
2019-01-25T23:24:29.517Z,28.03
2019-01-25T23:26:59.917Z,26.07
2019-01-25T23:29:30.399Z,27.57
2019-01-25T23:32:00.788Z,27.30
2019-01-25T23:34:31.139Z,26.23
2019-01-25T23:37:01.496Z,29.37
2019-01-25T23:39:31.839Z,28.30
2019-01-25T23:42:01.608Z,28.10
2019-01-25T23:44:31.855Z,28.97
2019-01-25T23:47:01.642Z,28.20
2019-01-25T23:49:31.927Z,28.90
2019-01-25T23:52:02.755Z,30.13
2019-01-25T23:54:33.135Z,29.47
2019-01-25T23:57:02.830Z,29.90
2019-01-25T23:59:33.103Z,30.23
